sensor_id;sensor_type;location;lat;lon;timestamp;P1;durP1;ratioP1;P2;durP2;ratioP2
69527;SDS011;57136;51.986;4.468;2022-09-13T00:00:37;19.35;;;12.90;;
69527;SDS011;57136;51.986;4.468;2022-09-13T00:03:03;15.18;;;10.50;;
69527;SDS011;57136;51.986;4.468;2022-09-13T00:05:29;13.73;;;10.90;;
69527;SDS011;57136;51.986;4.468;2022-09-13T00:07:55;14.80;;;11.55;;
69527;SDS011;57136;51.986;4.468;2022-09-13T00:10:21;14.43;;;10.88;;
69527;SDS011;57136;51.986;4.468;2022-09-13T00:12:47;13.80;;;10.27;;
69527;SDS011;57136;51.986;4.468;2022-09-13T00:15:13;11.07;;;9.30;;
69527;SDS011;57136;51.986;4.468;2022-09-13T00:17:38;10.60;;;8.25;;
69527;SDS011;57136;51.986;4.468;2022-09-13T00:20:03;12.65;;;8.93;;
69527;SDS011;57136;51.986;4.468;2022-09-13T00:22:30;12.77;;;9.30;;
69527;SDS011;57136;51.986;4.468;2022-09-13T00:24:55;9.18;;;7.97;;
69527;SDS011;57136;51.986;4.468;2022-09-13T00:27:20;11.90;;;8.32;;
69527;SDS011;57136;51.986;4.468;2022-09-13T00:29:45;10.38;;;8.40;;
69527;SDS011;57136;51.986;4.468;2022-09-13T00:32:11;10.15;;;7.97;;
69527;SDS011;57136;51.986;4.468;2022-09-13T00:34:36;10.70;;;7.30;;
69527;SDS011;57136;51.986;4.468;2022-09-13T00:37:01;9.80;;;7.60;;
69527;SDS011;57136;51.986;4.468;2022-09-13T00:39:27;8.70;;;7.05;;
69527;SDS011;57136;51.986;4.468;2022-09-13T00:41:52;11.38;;;9.57;;
69527;SDS011;57136;51.986;4.468;2022-09-13T00:49:57;15.70;;;12.07;;
69527;SDS011;57136;51.986;4.468;2022-09-13T00:52:27;15.30;;;11.45;;
69527;SDS011;57136;51.986;4.468;2022-09-13T00:54:57;16.02;;;11.05;;
69527;SDS011;57136;51.986;4.468;2022-09-13T00:57:27;13.07;;;9.57;;
69527;SDS011;57136;51.986;4.468;2022-09-13T01:00:11;12.07;;;9.77;;
69527;SDS011;57136;51.986;4.468;2022-09-13T01:02:40;14.18;;;8.90;;
69527;SDS011;57136;51.986;4.468;2022-09-13T01:05:10;11.38;;;8.60;;
69527;SDS011;57136;51.986;4.468;2022-09-13T01:07:38;11.68;;;9.20;;
69527;SDS011;57136;51.986;4.468;2022-09-13T01:10:04;14.02;;;8.80;;
69527;SDS011;57136;51.986;4.468;2022-09-13T01:15:08;13.65;;;8.55;;
69527;SDS011;57136;51.986;4.468;2022-09-13T01:17:34;12.85;;;9.30;;
69527;SDS011;57136;51.986;4.468;2022-09-13T01:20:01;13.70;;;8.82;;
69527;SDS011;57136;51.986;4.468;2022-09-13T01:25:25;12.43;;;9.45;;
69527;SDS011;57136;51.986;4.468;2022-09-13T01:36:53;12.05;;;10.00;;
69527;SDS011;57136;51.986;4.468;2022-09-13T01:44:55;13.63;;;10.68;;
69527;SDS011;57136;51.986;4.468;2022-09-13T01:47:51;13.57;;;10.57;;
69527;SDS011;57136;51.986;4.468;2022-09-13T01:53:29;12.88;;;11.50;;
69527;SDS011;57136;51.986;4.468;2022-09-13T01:56:10;12.18;;;10.23;;
69527;SDS011;57136;51.986;4.468;2022-09-13T01:58:51;14.52;;;11.50;;
69527;SDS011;57136;51.986;4.468;2022-09-13T02:01:26;13.48;;;11.38;;
69527;SDS011;57136;51.986;4.468;2022-09-13T02:04:03;14.00;;;11.00;;
69527;SDS011;57136;51.986;4.468;2022-09-13T02:06:39;12.43;;;10.45;;
69527;SDS011;57136;51.986;4.468;2022-09-13T02:09:14;14.60;;;10.32;;
69527;SDS011;57136;51.986;4.468;2022-09-13T02:11:45;13.02;;;11.00;;
69527;SDS011;57136;51.986;4.468;2022-09-13T02:14:15;13.30;;;10.85;;
69527;SDS011;57136;51.986;4.468;2022-09-13T02:16:50;15.07;;;11.43;;
69527;SDS011;57136;51.986;4.468;2022-09-13T02:19:28;12.52;;;11.25;;
69527;SDS011;57136;51.986;4.468;2022-09-13T02:22:00;18.83;;;11.13;;
69527;SDS011;57136;51.986;4.468;2022-09-13T02:24:33;14.48;;;10.77;;
69527;SDS011;57136;51.986;4.468;2022-09-13T02:27:02;11.68;;;10.30;;
69527;SDS011;57136;51.986;4.468;2022-09-13T02:29:32;11.77;;;9.63;;
69527;SDS011;57136;51.986;4.468;2022-09-13T02:32:05;12.85;;;10.25;;
69527;SDS011;57136;51.986;4.468;2022-09-13T02:34:47;16.35;;;10.63;;
69527;SDS011;57136;51.986;4.468;2022-09-13T02:37:23;14.60;;;10.98;;
69527;SDS011;57136;51.986;4.468;2022-09-13T02:39:58;11.38;;;10.07;;
69527;SDS011;57136;51.986;4.468;2022-09-13T02:44:55;12.70;;;10.90;;
69527;SDS011;57136;51.986;4.468;2022-09-13T02:52:45;14.98;;;11.00;;
69527;SDS011;57136;51.986;4.468;2022-09-13T02:55:35;13.88;;;11.55;;
69527;SDS011;57136;51.986;4.468;2022-09-13T03:00:37;13.52;;;11.27;;
69527;SDS011;57136;51.986;4.468;2022-09-13T03:03:03;17.75;;;11.98;;
69527;SDS011;57136;51.986;4.468;2022-09-13T03:05:31;13.55;;;11.57;;
69527;SDS011;57136;51.986;4.468;2022-09-13T03:07:57;13.45;;;11.85;;
69527;SDS011;57136;51.986;4.468;2022-09-13T03:10:23;14.57;;;10.93;;
69527;SDS011;57136;51.986;4.468;2022-09-13T03:13:10;12.48;;;10.60;;
69527;SDS011;57136;51.986;4.468;2022-09-13T03:16:02;12.43;;;11.13;;
69527;SDS011;57136;51.986;4.468;2022-09-13T03:18:40;14.05;;;11.27;;
69527;SDS011;57136;51.986;4.468;2022-09-13T03:21:37;13.52;;;11.57;;
69527;SDS011;57136;51.986;4.468;2022-09-13T03:29:41;11.95;;;10.63;;
69527;SDS011;57136;51.986;4.468;2022-09-13T03:33:29;13.05;;;10.35;;
69527;SDS011;57136;51.986;4.468;2022-09-13T03:35:36;14.50;;;11.80;;
69527;SDS011;57136;51.986;4.468;2022-09-13T03:40:46;17.63;;;12.13;;
69527;SDS011;57136;51.986;4.468;2022-09-13T03:45:55;14.77;;;12.10;;
69527;SDS011;57136;51.986;4.468;2022-09-13T03:48:25;13.85;;;11.60;;
69527;SDS011;57136;51.986;4.468;2022-09-13T03:50:51;16.55;;;11.73;;
69527;SDS011;57136;51.986;4.468;2022-09-13T03:53:21;14.15;;;12.13;;
69527;SDS011;57136;51.986;4.468;2022-09-13T03:55:49;16.75;;;12.57;;
69527;SDS011;57136;51.986;4.468;2022-09-13T03:58:18;19.45;;;12.93;;
69527;SDS011;57136;51.986;4.468;2022-09-13T04:00:44;14.35;;;12.10;;
69527;SDS011;57136;51.986;4.468;2022-09-13T04:03:10;17.65;;;12.70;;
69527;SDS011;57136;51.986;4.468;2022-09-13T04:05:36;17.50;;;13.30;;
69527;SDS011;57136;51.986;4.468;2022-09-13T04:08:03;16.70;;;12.82;;
69527;SDS011;57136;51.986;4.468;2022-09-13T04:10:30;17.10;;;13.75;;
69527;SDS011;57136;51.986;4.468;2022-09-13T04:12:57;15.98;;;12.75;;
69527;SDS011;57136;51.986;4.468;2022-09-13T04:15:24;20.13;;;13.95;;
69527;SDS011;57136;51.986;4.468;2022-09-13T04:17:49;18.50;;;14.10;;
69527;SDS011;57136;51.986;4.468;2022-09-13T04:20:15;19.40;;;14.30;;
69527;SDS011;57136;51.986;4.468;2022-09-13T04:22:40;15.93;;;12.98;;
69527;SDS011;57136;51.986;4.468;2022-09-13T04:25:06;18.67;;;14.85;;
69527;SDS011;57136;51.986;4.468;2022-09-13T04:27:32;20.30;;;14.90;;
69527;SDS011;57136;51.986;4.468;2022-09-13T04:29:57;19.20;;;14.15;;
69527;SDS011;57136;51.986;4.468;2022-09-13T04:32:22;21.60;;;14.38;;
69527;SDS011;57136;51.986;4.468;2022-09-13T04:34:48;20.27;;;13.75;;
69527;SDS011;57136;51.986;4.468;2022-09-13T04:37:13;18.38;;;14.75;;
69527;SDS011;57136;51.986;4.468;2022-09-13T04:39:39;17.02;;;13.18;;
69527;SDS011;57136;51.986;4.468;2022-09-13T04:42:04;18.42;;;13.23;;
69527;SDS011;57136;51.986;4.468;2022-09-13T04:44:31;18.50;;;14.73;;
69527;SDS011;57136;51.986;4.468;2022-09-13T04:46:57;18.40;;;14.43;;
69527;SDS011;57136;51.986;4.468;2022-09-13T04:49:22;20.73;;;14.25;;
69527;SDS011;57136;51.986;4.468;2022-09-13T04:51:48;19.30;;;13.55;;
69527;SDS011;57136;51.986;4.468;2022-09-13T04:54:13;19.25;;;14.77;;
69527;SDS011;57136;51.986;4.468;2022-09-13T04:56:39;17.98;;;13.80;;
69527;SDS011;57136;51.986;4.468;2022-09-13T04:59:04;20.20;;;14.32;;
69527;SDS011;57136;51.986;4.468;2022-09-13T05:01:30;18.40;;;14.32;;
69527;SDS011;57136;51.986;4.468;2022-09-13T05:03:56;22.45;;;15.82;;
69527;SDS011;57136;51.986;4.468;2022-09-13T05:06:21;22.85;;;16.35;;
69527;SDS011;57136;51.986;4.468;2022-09-13T05:08:51;22.58;;;15.48;;
69527;SDS011;57136;51.986;4.468;2022-09-13T05:11:19;23.35;;;17.63;;
69527;SDS011;57136;51.986;4.468;2022-09-13T05:13:47;24.83;;;16.67;;
69527;SDS011;57136;51.986;4.468;2022-09-13T05:16:18;23.98;;;17.08;;
69527;SDS011;57136;51.986;4.468;2022-09-13T05:18:43;26.67;;;17.58;;
69527;SDS011;57136;51.986;4.468;2022-09-13T05:21:09;26.55;;;18.05;;
69527;SDS011;57136;51.986;4.468;2022-09-13T05:23:34;23.23;;;15.73;;
69527;SDS011;57136;51.986;4.468;2022-09-13T05:26:04;24.90;;;19.65;;
69527;SDS011;57136;51.986;4.468;2022-09-13T05:28:31;24.63;;;18.25;;
69527;SDS011;57136;51.986;4.468;2022-09-13T05:31:03;26.50;;;19.33;;
69527;SDS011;57136;51.986;4.468;2022-09-13T05:33:31;29.83;;;19.83;;
69527;SDS011;57136;51.986;4.468;2022-09-13T05:35:58;28.38;;;19.63;;
69527;SDS011;57136;51.986;4.468;2022-09-13T05:38:24;27.00;;;19.02;;
69527;SDS011;57136;51.986;4.468;2022-09-13T05:40:56;30.58;;;20.88;;
69527;SDS011;57136;51.986;4.468;2022-09-13T05:43:23;29.35;;;20.25;;
69527;SDS011;57136;51.986;4.468;2022-09-13T05:45:59;26.30;;;19.05;;
69527;SDS011;57136;51.986;4.468;2022-09-13T05:48:29;27.17;;;19.80;;
69527;SDS011;57136;51.986;4.468;2022-09-13T05:50:55;29.85;;;19.92;;
69527;SDS011;57136;51.986;4.468;2022-09-13T05:53:20;29.98;;;20.63;;
69527;SDS011;57136;51.986;4.468;2022-09-13T05:55:46;31.30;;;21.20;;
69527;SDS011;57136;51.986;4.468;2022-09-13T05:58:11;27.42;;;19.35;;
69527;SDS011;57136;51.986;4.468;2022-09-13T06:00:36;35.78;;;23.58;;
69527;SDS011;57136;51.986;4.468;2022-09-13T06:03:01;31.88;;;22.88;;
69527;SDS011;57136;51.986;4.468;2022-09-13T06:05:27;37.88;;;26.10;;
69527;SDS011;57136;51.986;4.468;2022-09-13T06:07:52;36.35;;;23.92;;
69527;SDS011;57136;51.986;4.468;2022-09-13T06:10:17;31.35;;;22.85;;
69527;SDS011;57136;51.986;4.468;2022-09-13T06:12:44;32.13;;;22.70;;
69527;SDS011;57136;51.986;4.468;2022-09-13T06:15:10;31.60;;;22.90;;
69527;SDS011;57136;51.986;4.468;2022-09-13T06:17:35;37.80;;;22.83;;
69527;SDS011;57136;51.986;4.468;2022-09-13T06:20:00;27.83;;;21.38;;
69527;SDS011;57136;51.986;4.468;2022-09-13T06:22:26;27.52;;;20.67;;
69527;SDS011;57136;51.986;4.468;2022-09-13T06:24:57;29.48;;;21.52;;
69527;SDS011;57136;51.986;4.468;2022-09-13T06:27:23;27.17;;;21.27;;
69527;SDS011;57136;51.986;4.468;2022-09-13T06:29:48;28.52;;;20.20;;
69527;SDS011;57136;51.986;4.468;2022-09-13T06:32:13;27.92;;;20.95;;
69527;SDS011;57136;51.986;4.468;2022-09-13T06:34:38;29.23;;;20.27;;
69527;SDS011;57136;51.986;4.468;2022-09-13T06:37:04;23.10;;;18.30;;
69527;SDS011;57136;51.986;4.468;2022-09-13T06:39:29;26.00;;;19.60;;
69527;SDS011;57136;51.986;4.468;2022-09-13T06:41:56;26.90;;;18.90;;
69527;SDS011;57136;51.986;4.468;2022-09-13T06:44:21;25.52;;;18.17;;
69527;SDS011;57136;51.986;4.468;2022-09-13T06:46:47;23.95;;;17.83;;
69527;SDS011;57136;51.986;4.468;2022-09-13T06:49:12;22.67;;;17.17;;
69527;SDS011;57136;51.986;4.468;2022-09-13T06:51:38;19.23;;;14.77;;
69527;SDS011;57136;51.986;4.468;2022-09-13T06:54:04;14.82;;;11.88;;
69527;SDS011;57136;51.986;4.468;2022-09-13T06:56:30;18.13;;;11.90;;
69527;SDS011;57136;51.986;4.468;2022-09-13T06:58:59;12.00;;;10.07;;
69527;SDS011;57136;51.986;4.468;2022-09-13T07:01:33;13.45;;;9.65;;
69527;SDS011;57136;51.986;4.468;2022-09-13T07:04:03;9.07;;;7.35;;
69527;SDS011;57136;51.986;4.468;2022-09-13T07:06:37;7.85;;;6.78;;
69527;SDS011;57136;51.986;4.468;2022-09-13T07:09:04;12.10;;;6.55;;
69527;SDS011;57136;51.986;4.468;2022-09-13T07:11:32;6.93;;;4.15;;
69527;SDS011;57136;51.986;4.468;2022-09-13T07:13:59;4.72;;;3.78;;
69527;SDS011;57136;51.986;4.468;2022-09-13T07:16:29;5.80;;;3.90;;
69527;SDS011;57136;51.986;4.468;2022-09-13T07:18:57;6.85;;;3.60;;
69527;SDS011;57136;51.986;4.468;2022-09-13T07:21:24;3.40;;;2.88;;
69527;SDS011;57136;51.986;4.468;2022-09-13T07:23:51;4.57;;;2.97;;
69527;SDS011;57136;51.986;4.468;2022-09-13T07:26:17;3.47;;;3.10;;
69527;SDS011;57136;51.986;4.468;2022-09-13T07:28:45;6.57;;;3.33;;
69527;SDS011;57136;51.986;4.468;2022-09-13T07:33:41;4.40;;;2.88;;
69527;SDS011;57136;51.986;4.468;2022-09-13T07:36:08;3.97;;;2.72;;
69527;SDS011;57136;51.986;4.468;2022-09-13T07:38:35;4.43;;;2.83;;
69527;SDS011;57136;51.986;4.468;2022-09-13T07:41:03;6.00;;;3.08;;
69527;SDS011;57136;51.986;4.468;2022-09-13T07:43:32;7.13;;;3.22;;
69527;SDS011;57136;51.986;4.468;2022-09-13T07:45:59;6.35;;;3.35;;
69527;SDS011;57136;51.986;4.468;2022-09-13T07:48:36;5.68;;;3.47;;
69527;SDS011;57136;51.986;4.468;2022-09-13T07:51:13;5.15;;;2.85;;
69527;SDS011;57136;51.986;4.468;2022-09-13T07:53:45;7.07;;;3.00;;
69527;SDS011;57136;51.986;4.468;2022-09-13T07:56:12;3.75;;;2.92;;
69527;SDS011;57136;51.986;4.468;2022-09-13T07:58:39;5.90;;;3.33;;
69527;SDS011;57136;51.986;4.468;2022-09-13T08:03:34;7.95;;;3.30;;
69527;SDS011;57136;51.986;4.468;2022-09-13T08:06:00;6.35;;;3.88;;
69527;SDS011;57136;51.986;4.468;2022-09-13T08:08:26;3.30;;;3.00;;
69527;SDS011;57136;51.986;4.468;2022-09-13T08:10:53;4.93;;;3.38;;
69527;SDS011;57136;51.986;4.468;2022-09-13T08:13:18;6.68;;;3.35;;
69527;SDS011;57136;51.986;4.468;2022-09-13T08:15:44;6.68;;;3.03;;
69527;SDS011;57136;51.986;4.468;2022-09-13T08:18:09;5.05;;;2.80;;
69527;SDS011;57136;51.986;4.468;2022-09-13T08:20:38;5.88;;;2.80;;
69527;SDS011;57136;51.986;4.468;2022-09-13T08:23:04;4.10;;;2.80;;
69527;SDS011;57136;51.986;4.468;2022-09-13T08:25:31;4.68;;;2.75;;
69527;SDS011;57136;51.986;4.468;2022-09-13T08:27:58;3.55;;;2.70;;
69527;SDS011;57136;51.986;4.468;2022-09-13T08:30:25;4.38;;;2.42;;
69527;SDS011;57136;51.986;4.468;2022-09-13T08:32:57;3.05;;;2.30;;
69527;SDS011;57136;51.986;4.468;2022-09-13T08:35:23;4.00;;;2.15;;
69527;SDS011;57136;51.986;4.468;2022-09-13T08:37:48;2.88;;;2.03;;
69527;SDS011;57136;51.986;4.468;2022-09-13T08:40:14;3.40;;;2.05;;
69527;SDS011;57136;51.986;4.468;2022-09-13T08:48:57;4.15;;;2.35;;
69527;SDS011;57136;51.986;4.468;2022-09-13T08:51:47;4.43;;;2.38;;
69527;SDS011;57136;51.986;4.468;2022-09-13T08:54:17;3.35;;;1.92;;
69527;SDS011;57136;51.986;4.468;2022-09-13T08:59:31;1.88;;;1.70;;
69527;SDS011;57136;51.986;4.468;2022-09-13T09:05:03;2.90;;;1.70;;
69527;SDS011;57136;51.986;4.468;2022-09-13T09:07:39;3.45;;;1.77;;
69527;SDS011;57136;51.986;4.468;2022-09-13T09:10:28;2.60;;;1.45;;
69527;SDS011;57136;51.986;4.468;2022-09-13T09:12:58;2.10;;;1.30;;
69527;SDS011;57136;51.986;4.468;2022-09-13T09:15:35;1.52;;;1.30;;
69527;SDS011;57136;51.986;4.468;2022-09-13T09:18:26;3.05;;;1.52;;
69527;SDS011;57136;51.986;4.468;2022-09-13T09:21:02;2.78;;;1.63;;
69527;SDS011;57136;51.986;4.468;2022-09-13T09:23:36;2.90;;;1.30;;
69527;SDS011;57136;51.986;4.468;2022-09-13T09:26:15;1.48;;;1.20;;
69527;SDS011;57136;51.986;4.468;2022-09-13T09:28:41;5.38;;;1.38;;
69527;SDS011;57136;51.986;4.468;2022-09-13T09:31:09;4.40;;;1.60;;
69527;SDS011;57136;51.986;4.468;2022-09-13T09:34:00;1.20;;;1.10;;
69527;SDS011;57136;51.986;4.468;2022-09-13T09:36:37;4.20;;;1.20;;
69527;SDS011;57136;51.986;4.468;2022-09-13T09:39:09;2.17;;;1.23;;
69527;SDS011;57136;51.986;4.468;2022-09-13T09:41:36;2.08;;;1.20;;
69527;SDS011;57136;51.986;4.468;2022-09-13T09:46:40;2.97;;;1.33;;
69527;SDS011;57136;51.986;4.468;2022-09-13T09:49:14;4.78;;;1.60;;
69527;SDS011;57136;51.986;4.468;2022-09-13T09:52:02;3.55;;;1.20;;
69527;SDS011;57136;51.986;4.468;2022-09-13T09:54:31;5.38;;;1.40;;
69527;SDS011;57136;51.986;4.468;2022-09-13T09:56:59;2.70;;;1.17;;
69527;SDS011;57136;51.986;4.468;2022-09-13T09:59:29;3.58;;;1.60;;
69527;SDS011;57136;51.986;4.468;2022-09-13T10:01:56;3.58;;;1.20;;
69527;SDS011;57136;51.986;4.468;2022-09-13T10:04:24;6.97;;;1.45;;
69527;SDS011;57136;51.986;4.468;2022-09-13T10:06:50;6.68;;;1.48;;
69527;SDS011;57136;51.986;4.468;2022-09-13T10:09:33;3.78;;;1.20;;
69527;SDS011;57136;51.986;4.468;2022-09-13T10:12:01;3.17;;;1.42;;
69527;SDS011;57136;51.986;4.468;2022-09-13T10:19:51;5.22;;;1.52;;
69527;SDS011;57136;51.986;4.468;2022-09-13T10:22:25;4.47;;;1.50;;
69527;SDS011;57136;51.986;4.468;2022-09-13T10:24:52;5.07;;;1.75;;
69527;SDS011;57136;51.986;4.468;2022-09-13T10:27:34;2.20;;;1.30;;
69527;SDS011;57136;51.986;4.468;2022-09-13T10:30:02;5.97;;;1.25;;
69527;SDS011;57136;51.986;4.468;2022-09-13T10:32:29;3.22;;;1.23;;
69527;SDS011;57136;51.986;4.468;2022-09-13T10:34:55;3.25;;;1.48;;
69527;SDS011;57136;51.986;4.468;2022-09-13T10:37:31;2.67;;;1.42;;
69527;SDS011;57136;51.986;4.468;2022-09-13T10:40:00;6.13;;;1.50;;
69527;SDS011;57136;51.986;4.468;2022-09-13T10:45:00;2.25;;;0.93;;
69527;SDS011;57136;51.986;4.468;2022-09-13T10:47:36;3.88;;;1.20;;
69527;SDS011;57136;51.986;4.468;2022-09-13T10:50:15;4.88;;;1.33;;
69527;SDS011;57136;51.986;4.468;2022-09-13T10:52:45;2.47;;;1.38;;
69527;SDS011;57136;51.986;4.468;2022-09-13T11:00:45;3.45;;;1.30;;
69527;SDS011;57136;51.986;4.468;2022-09-13T11:03:37;3.33;;;1.30;;
69527;SDS011;57136;51.986;4.468;2022-09-13T11:25:50;3.03;;;1.60;;
69527;SDS011;57136;51.986;4.468;2022-09-13T11:33:40;2.95;;;1.20;;
69527;SDS011;57136;51.986;4.468;2022-09-13T11:39:34;5.32;;;1.38;;
69527;SDS011;57136;51.986;4.468;2022-09-13T11:42:21;4.38;;;1.30;;
69527;SDS011;57136;51.986;4.468;2022-09-13T11:45:07;8.18;;;2.10;;
69527;SDS011;57136;51.986;4.468;2022-09-13T11:47:46;10.15;;;1.90;;
69527;SDS011;57136;51.986;4.468;2022-09-13T11:58:52;3.85;;;1.33;;
69527;SDS011;57136;51.986;4.468;2022-09-13T12:01:24;2.75;;;1.15;;
69527;SDS011;57136;51.986;4.468;2022-09-13T12:04:01;1.80;;;1.17;;
69527;SDS011;57136;51.986;4.468;2022-09-13T12:06:31;3.25;;;1.10;;
69527;SDS011;57136;51.986;4.468;2022-09-13T12:11:36;2.75;;;1.10;;
69527;SDS011;57136;51.986;4.468;2022-09-13T12:14:06;3.20;;;1.20;;
69527;SDS011;57136;51.986;4.468;2022-09-13T12:16:41;3.28;;;1.00;;
69527;SDS011;57136;51.986;4.468;2022-09-13T12:21:47;2.22;;;1.40;;
69527;SDS011;57136;51.986;4.468;2022-09-13T12:27:22;1.92;;;1.00;;
69527;SDS011;57136;51.986;4.468;2022-09-13T12:32:42;3.40;;;1.15;;
69527;SDS011;57136;51.986;4.468;2022-09-13T12:35:16;2.28;;;1.00;;
69527;SDS011;57136;51.986;4.468;2022-09-13T12:40:42;1.85;;;1.02;;
69527;SDS011;57136;51.986;4.468;2022-09-13T12:43:30;2.38;;;1.00;;
69527;SDS011;57136;51.986;4.468;2022-09-13T12:49:51;6.78;;;1.48;;
69527;SDS011;57136;51.986;4.468;2022-09-13T12:52:38;4.50;;;1.20;;
69527;SDS011;57136;51.986;4.468;2022-09-13T12:57:47;6.10;;;1.00;;
69527;SDS011;57136;51.986;4.468;2022-09-13T13:00:22;2.22;;;0.80;;
69527;SDS011;57136;51.986;4.468;2022-09-13T13:05:30;4.35;;;0.90;;
69527;SDS011;57136;51.986;4.468;2022-09-13T13:08:01;2.55;;;1.23;;
69527;SDS011;57136;51.986;4.468;2022-09-13T13:10:34;6.78;;;1.00;;
69527;SDS011;57136;51.986;4.468;2022-09-13T13:13:11;2.92;;;1.00;;
69527;SDS011;57136;51.986;4.468;2022-09-13T13:15:56;2.72;;;1.00;;
69527;SDS011;57136;51.986;4.468;2022-09-13T13:29:22;2.95;;;0.82;;
69527;SDS011;57136;51.986;4.468;2022-09-13T13:34:41;3.83;;;0.90;;
69527;SDS011;57136;51.986;4.468;2022-09-13T13:39:36;3.25;;;0.90;;
69527;SDS011;57136;51.986;4.468;2022-09-13T13:57:21;1.13;;;0.63;;
69527;SDS011;57136;51.986;4.468;2022-09-13T13:59:51;2.60;;;1.05;;
69527;SDS011;57136;51.986;4.468;2022-09-13T14:02:20;3.00;;;0.88;;
69527;SDS011;57136;51.986;4.468;2022-09-13T14:05:00;1.98;;;0.80;;
69527;SDS011;57136;51.986;4.468;2022-09-13T14:10:44;4.45;;;0.82;;
69527;SDS011;57136;51.986;4.468;2022-09-13T14:13:37;3.63;;;1.00;;
69527;SDS011;57136;51.986;4.468;2022-09-13T14:16:17;2.83;;;0.82;;
69527;SDS011;57136;51.986;4.468;2022-09-13T14:18:51;2.03;;;0.77;;
69527;SDS011;57136;51.986;4.468;2022-09-13T14:21:31;1.08;;;0.70;;
69527;SDS011;57136;51.986;4.468;2022-09-13T14:24:16;2.60;;;1.00;;
69527;SDS011;57136;51.986;4.468;2022-09-13T14:26:43;4.57;;;1.10;;
69527;SDS011;57136;51.986;4.468;2022-09-13T14:29:11;1.88;;;0.60;;
69527;SDS011;57136;51.986;4.468;2022-09-13T14:31:43;2.35;;;0.90;;
69527;SDS011;57136;51.986;4.468;2022-09-13T14:34:18;2.58;;;0.70;;
69527;SDS011;57136;51.986;4.468;2022-09-13T14:36:56;1.25;;;0.75;;
69527;SDS011;57136;51.986;4.468;2022-09-13T14:39:26;2.92;;;0.82;;
69527;SDS011;57136;51.986;4.468;2022-09-13T14:44:36;2.63;;;0.93;;
69527;SDS011;57136;51.986;4.468;2022-09-13T14:47:11;3.10;;;0.82;;
69527;SDS011;57136;51.986;4.468;2022-09-13T14:50:02;5.40;;;1.10;;
69527;SDS011;57136;51.986;4.468;2022-09-13T14:52:35;3.93;;;0.77;;
69527;SDS011;57136;51.986;4.468;2022-09-13T14:55:07;2.03;;;1.00;;
69527;SDS011;57136;51.986;4.468;2022-09-13T14:57:38;4.63;;;0.88;;
69527;SDS011;57136;51.986;4.468;2022-09-13T15:00:15;4.18;;;1.00;;
69527;SDS011;57136;51.986;4.468;2022-09-13T15:02:52;7.07;;;1.00;;
69527;SDS011;57136;51.986;4.468;2022-09-13T15:05:20;6.25;;;1.20;;
69527;SDS011;57136;51.986;4.468;2022-09-13T15:07:48;3.05;;;0.73;;
69527;SDS011;57136;51.986;4.468;2022-09-13T15:12:55;3.17;;;0.73;;
69527;SDS011;57136;51.986;4.468;2022-09-13T15:15:37;5.15;;;0.82;;
69527;SDS011;57136;51.986;4.468;2022-09-13T15:20:48;2.38;;;0.63;;
69527;SDS011;57136;51.986;4.468;2022-09-13T15:23:17;2.33;;;0.70;;
69527;SDS011;57136;51.986;4.468;2022-09-13T15:25:49;4.93;;;0.93;;
69527;SDS011;57136;51.986;4.468;2022-09-13T15:28:21;4.63;;;1.50;;
69527;SDS011;57136;51.986;4.468;2022-09-13T15:30:49;5.35;;;2.42;;
69527;SDS011;57136;51.986;4.468;2022-09-13T15:33:22;6.82;;;1.15;;
69527;SDS011;57136;51.986;4.468;2022-09-13T15:35:49;1.63;;;0.47;;
69527;SDS011;57136;51.986;4.468;2022-09-13T15:40:52;5.43;;;1.05;;
69527;SDS011;57136;51.986;4.468;2022-09-13T15:43:23;5.35;;;0.88;;
69527;SDS011;57136;51.986;4.468;2022-09-13T15:45:48;1.40;;;0.60;;
69527;SDS011;57136;51.986;4.468;2022-09-13T15:48:33;2.03;;;0.93;;
69527;SDS011;57136;51.986;4.468;2022-09-13T15:51:04;3.30;;;0.90;;
69527;SDS011;57136;51.986;4.468;2022-09-13T15:53:30;3.78;;;0.88;;
69527;SDS011;57136;51.986;4.468;2022-09-13T15:55:55;2.08;;;0.90;;
69527;SDS011;57136;51.986;4.468;2022-09-13T15:58:21;3.10;;;0.95;;
69527;SDS011;57136;51.986;4.468;2022-09-13T16:00:46;6.03;;;0.88;;
69527;SDS011;57136;51.986;4.468;2022-09-13T16:03:11;2.58;;;0.90;;
69527;SDS011;57136;51.986;4.468;2022-09-13T16:05:37;2.22;;;1.17;;
69527;SDS011;57136;51.986;4.468;2022-09-13T16:08:02;4.93;;;0.82;;
69527;SDS011;57136;51.986;4.468;2022-09-13T16:10:27;2.78;;;0.60;;
69527;SDS011;57136;51.986;4.468;2022-09-13T16:12:53;5.68;;;1.35;;
69527;SDS011;57136;51.986;4.468;2022-09-13T16:15:19;3.15;;;0.70;;
69527;SDS011;57136;51.986;4.468;2022-09-13T16:17:44;3.38;;;1.15;;
69527;SDS011;57136;51.986;4.468;2022-09-13T16:20:10;4.97;;;0.90;;
69527;SDS011;57136;51.986;4.468;2022-09-13T16:22:37;5.15;;;1.00;;
69527;SDS011;57136;51.986;4.468;2022-09-13T16:25:02;5.43;;;1.00;;
69527;SDS011;57136;51.986;4.468;2022-09-13T16:27:28;4.78;;;0.80;;
69527;SDS011;57136;51.986;4.468;2022-09-13T16:29:54;2.53;;;0.70;;
69527;SDS011;57136;51.986;4.468;2022-09-13T16:32:19;3.33;;;0.80;;
69527;SDS011;57136;51.986;4.468;2022-09-13T16:34:45;5.63;;;1.38;;
69527;SDS011;57136;51.986;4.468;2022-09-13T16:37:15;2.83;;;1.08;;
69527;SDS011;57136;51.986;4.468;2022-09-13T16:39:42;4.97;;;1.23;;
69527;SDS011;57136;51.986;4.468;2022-09-13T16:42:08;5.10;;;0.98;;
69527;SDS011;57136;51.986;4.468;2022-09-13T16:44:34;3.78;;;1.00;;
69527;SDS011;57136;51.986;4.468;2022-09-13T16:46:59;3.33;;;1.17;;
69527;SDS011;57136;51.986;4.468;2022-09-13T16:49:24;2.05;;;1.02;;
69527;SDS011;57136;51.986;4.468;2022-09-13T16:51:50;12.10;;;1.33;;
69527;SDS011;57136;51.986;4.468;2022-09-13T16:54:15;2.90;;;1.13;;
69527;SDS011;57136;51.986;4.468;2022-09-13T16:56:40;2.30;;;0.73;;
69527;SDS011;57136;51.986;4.468;2022-09-13T16:59:06;3.75;;;1.20;;
69527;SDS011;57136;51.986;4.468;2022-09-13T17:01:31;4.05;;;0.70;;
69527;SDS011;57136;51.986;4.468;2022-09-13T17:03:57;5.35;;;1.65;;
69527;SDS011;57136;51.986;4.468;2022-09-13T17:06:23;2.70;;;0.93;;
69527;SDS011;57136;51.986;4.468;2022-09-13T17:08:50;3.58;;;1.40;;
69527;SDS011;57136;51.986;4.468;2022-09-13T17:11:20;4.15;;;1.02;;
69527;SDS011;57136;51.986;4.468;2022-09-13T17:13:46;4.10;;;1.02;;
69527;SDS011;57136;51.986;4.468;2022-09-13T17:16:19;4.82;;;1.08;;
69527;SDS011;57136;51.986;4.468;2022-09-13T17:18:50;5.15;;;1.20;;
69527;SDS011;57136;51.986;4.468;2022-09-13T17:21:16;4.05;;;1.30;;
69527;SDS011;57136;51.986;4.468;2022-09-13T17:23:41;4.07;;;1.23;;
69527;SDS011;57136;51.986;4.468;2022-09-13T17:26:06;3.97;;;0.98;;
69527;SDS011;57136;51.986;4.468;2022-09-13T17:28:32;6.05;;;1.25;;
69527;SDS011;57136;51.986;4.468;2022-09-13T17:30:59;4.95;;;1.17;;
69527;SDS011;57136;51.986;4.468;2022-09-13T17:33:25;4.28;;;1.20;;
69527;SDS011;57136;51.986;4.468;2022-09-13T17:35:57;5.70;;;1.25;;
69527;SDS011;57136;51.986;4.468;2022-09-13T17:38:27;6.15;;;1.30;;
69527;SDS011;57136;51.986;4.468;2022-09-13T17:41:02;4.18;;;1.15;;
69527;SDS011;57136;51.986;4.468;2022-09-13T17:43:30;5.95;;;1.58;;
69527;SDS011;57136;51.986;4.468;2022-09-13T17:45:56;4.68;;;1.20;;
69527;SDS011;57136;51.986;4.468;2022-09-13T17:48:21;5.90;;;1.23;;
69527;SDS011;57136;51.986;4.468;2022-09-13T17:50:47;5.10;;;1.52;;
69527;SDS011;57136;51.986;4.468;2022-09-13T17:53:12;4.90;;;1.25;;
69527;SDS011;57136;51.986;4.468;2022-09-13T17:55:45;3.47;;;1.20;;
69527;SDS011;57136;51.986;4.468;2022-09-13T17:58:13;5.28;;;2.10;;
69527;SDS011;57136;51.986;4.468;2022-09-13T18:00:39;4.78;;;1.27;;
69527;SDS011;57136;51.986;4.468;2022-09-13T18:03:04;3.83;;;1.20;;